sensor_id;sensor_type;location;lat;lon;timestamp;temperature;humidity
11818;DHT22;5966;52.402;5.322;2023-05-20T00:00:57;11.90;99.90
11818;DHT22;5966;52.402;5.322;2023-05-20T00:03:27;11.80;99.90
11818;DHT22;5966;52.402;5.322;2023-05-20T00:05:56;11.80;99.90
11818;DHT22;5966;52.402;5.322;2023-05-20T00:08:24;11.80;99.90
11818;DHT22;5966;52.402;5.322;2023-05-20T00:10:52;11.80;99.90
11818;DHT22;5966;52.402;5.322;2023-05-20T00:13:20;11.70;99.90
11818;DHT22;5966;52.402;5.322;2023-05-20T00:15:51;11.80;99.90
11818;DHT22;5966;52.402;5.322;2023-05-20T00:18:19;11.70;99.90
11818;DHT22;5966;52.402;5.322;2023-05-20T00:20:49;11.70;99.90
11818;DHT22;5966;52.402;5.322;2023-05-20T00:23:17;11.70;99.90
11818;DHT22;5966;52.402;5.322;2023-05-20T00:25:45;11.70;99.90
11818;DHT22;5966;52.402;5.322;2023-05-20T00:28:13;11.60;99.90
11818;DHT22;5966;52.402;5.322;2023-05-20T00:30:41;11.70;99.90
11818;DHT22;5966;52.402;5.322;2023-05-20T00:33:09;11.70;99.90
11818;DHT22;5966;52.402;5.322;2023-05-20T00:35:38;11.60;99.90
11818;DHT22;5966;52.402;5.322;2023-05-20T00:38:07;11.60;99.90
11818;DHT22;5966;52.402;5.322;2023-05-20T00:40:35;11.60;99.90
11818;DHT22;5966;52.402;5.322;2023-05-20T00:43:03;11.60;99.90
11818;DHT22;5966;52.402;5.322;2023-05-20T00:45:31;11.60;99.90
11818;DHT22;5966;52.402;5.322;2023-05-20T00:48:00;11.60;99.90
11818;DHT22;5966;52.402;5.322;2023-05-20T00:50:30;11.50;99.90
11818;DHT22;5966;52.402;5.322;2023-05-20T00:52:59;11.40;99.90
11818;DHT22;5966;52.402;5.322;2023-05-20T00:55:28;11.40;99.90
11818;DHT22;5966;52.402;5.322;2023-05-20T00:57:57;11.50;99.90
11818;DHT22;5966;52.402;5.322;2023-05-20T01:00:25;11.50;99.90
11818;DHT22;5966;52.402;5.322;2023-05-20T01:02:54;11.50;99.90
11818;DHT22;5966;52.402;5.322;2023-05-20T01:05:22;11.50;99.90
11818;DHT22;5966;52.402;5.322;2023-05-20T01:07:50;11.50;99.90
11818;DHT22;5966;52.402;5.322;2023-05-20T01:10:19;11.50;99.90
11818;DHT22;5966;52.402;5.322;2023-05-20T01:12:53;11.50;99.90
11818;DHT22;5966;52.402;5.322;2023-05-20T01:15:24;11.40;99.90
11818;DHT22;5966;52.402;5.322;2023-05-20T01:17:58;11.40;99.90
11818;DHT22;5966;52.402;5.322;2023-05-20T01:20:28;11.40;99.90
11818;DHT22;5966;52.402;5.322;2023-05-20T01:22:59;11.40;99.90
11818;DHT22;5966;52.402;5.322;2023-05-20T01:25:28;11.30;99.90
11818;DHT22;5966;52.402;5.322;2023-05-20T01:27:56;11.30;99.90
11818;DHT22;5966;52.402;5.322;2023-05-20T01:30:29;11.30;99.90
11818;DHT22;5966;52.402;5.322;2023-05-20T01:33:04;11.30;99.90
11818;DHT22;5966;52.402;5.322;2023-05-20T01:35:34;11.30;99.90
11818;DHT22;5966;52.402;5.322;2023-05-20T01:38:05;11.30;99.90
11818;DHT22;5966;52.402;5.322;2023-05-20T01:40:35;11.30;99.90
11818;DHT22;5966;52.402;5.322;2023-05-20T01:43:05;11.20;99.90
11818;DHT22;5966;52.402;5.322;2023-05-20T01:45:34;11.20;99.90
11818;DHT22;5966;52.402;5.322;2023-05-20T01:48:04;11.20;99.90
11818;DHT22;5966;52.402;5.322;2023-05-20T01:50:32;11.20;99.90
11818;DHT22;5966;52.402;5.322;2023-05-20T01:53:00;11.20;99.90
11818;DHT22;5966;52.402;5.322;2023-05-20T01:55:30;11.10;99.90
11818;DHT22;5966;52.402;5.322;2023-05-20T01:58:01;11.10;99.90
11818;DHT22;5966;52.402;5.322;2023-05-20T02:00:31;11.10;99.90
11818;DHT22;5966;52.402;5.322;2023-05-20T02:02:59;11.10;99.90
11818;DHT22;5966;52.402;5.322;2023-05-20T02:05:29;11.10;99.90
11818;DHT22;5966;52.402;5.322;2023-05-20T02:07:57;11.10;99.90
11818;DHT22;5966;52.402;5.322;2023-05-20T02:10:30;11.10;99.90
11818;DHT22;5966;52.402;5.322;2023-05-20T02:12:58;11.10;99.90
11818;DHT22;5966;52.402;5.322;2023-05-20T02:15:31;11.10;99.90
11818;DHT22;5966;52.402;5.322;2023-05-20T02:18:00;11.10;99.90
11818;DHT22;5966;52.402;5.322;2023-05-20T02:20:28;11.10;99.90
11818;DHT22;5966;52.402;5.322;2023-05-20T02:22:56;11.00;99.90
11818;DHT22;5966;52.402;5.322;2023-05-20T02:25:24;11.10;99.90
11818;DHT22;5966;52.402;5.322;2023-05-20T02:27:53;11.10;99.90
11818;DHT22;5966;52.402;5.322;2023-05-20T02:30:21;11.10;99.90
11818;DHT22;5966;52.402;5.322;2023-05-20T02:32:49;11.10;99.90
11818;DHT22;5966;52.402;5.322;2023-05-20T02:35:18;11.10;99.90
11818;DHT22;5966;52.402;5.322;2023-05-20T02:37:46;11.00;99.90
11818;DHT22;5966;52.402;5.322;2023-05-20T02:40:15;11.00;99.90
11818;DHT22;5966;52.402;5.322;2023-05-20T02:42:43;11.10;99.90
11818;DHT22;5966;52.402;5.322;2023-05-20T02:45:13;11.00;99.90
11818;DHT22;5966;52.402;5.322;2023-05-20T02:47:42;11.00;99.90
11818;DHT22;5966;52.402;5.322;2023-05-20T02:50:11;10.90;99.90
11818;DHT22;5966;52.402;5.322;2023-05-20T02:52:40;10.90;99.90
11818;DHT22;5966;52.402;5.322;2023-05-20T02:55:09;10.90;99.90
11818;DHT22;5966;52.402;5.322;2023-05-20T02:57:37;11.00;99.90
11818;DHT22;5966;52.402;5.322;2023-05-20T03:00:07;10.90;99.90
11818;DHT22;5966;52.402;5.322;2023-05-20T03:02:38;10.90;99.90
11818;DHT22;5966;52.402;5.322;2023-05-20T03:05:07;10.90;99.90
11818;DHT22;5966;52.402;5.322;2023-05-20T03:07:35;10.80;99.90
11818;DHT22;5966;52.402;5.322;2023-05-20T03:10:04;10.80;99.90
11818;DHT22;5966;52.402;5.322;2023-05-20T03:12:32;10.80;99.90
11818;DHT22;5966;52.402;5.322;2023-05-20T03:15:00;10.70;99.90
11818;DHT22;5966;52.402;5.322;2023-05-20T03:17:33;10.70;99.90
11818;DHT22;5966;52.402;5.322;2023-05-20T03:20:03;10.70;99.90
11818;DHT22;5966;52.402;5.322;2023-05-20T03:22:33;10.60;99.90
11818;DHT22;5966;52.402;5.322;2023-05-20T03:25:02;10.60;99.90
11818;DHT22;5966;52.402;5.322;2023-05-20T03:27:30;10.60;99.90
11818;DHT22;5966;52.402;5.322;2023-05-20T03:30:00;10.60;99.90
11818;DHT22;5966;52.402;5.322;2023-05-20T03:32:28;10.70;99.90
11818;DHT22;5966;52.402;5.322;2023-05-20T03:34:56;10.70;99.90
11818;DHT22;5966;52.402;5.322;2023-05-20T03:37:27;10.70;99.90
11818;DHT22;5966;52.402;5.322;2023-05-20T03:39:55;10.70;99.90
11818;DHT22;5966;52.402;5.322;2023-05-20T03:42:23;10.70;99.90
11818;DHT22;5966;52.402;5.322;2023-05-20T03:44:51;10.70;99.90
11818;DHT22;5966;52.402;5.322;2023-05-20T03:47:19;10.70;99.90
11818;DHT22;5966;52.402;5.322;2023-05-20T03:49:47;10.70;99.90
11818;DHT22;5966;52.402;5.322;2023-05-20T03:52:15;10.70;99.90
11818;DHT22;5966;52.402;5.322;2023-05-20T03:54:44;10.70;99.90
11818;DHT22;5966;52.402;5.322;2023-05-20T03:57:12;10.70;99.90
11818;DHT22;5966;52.402;5.322;2023-05-20T03:59:40;10.80;99.90
11818;DHT22;5966;52.402;5.322;2023-05-20T04:02:08;10.80;99.90
11818;DHT22;5966;52.402;5.322;2023-05-20T04:04:36;10.80;99.90
11818;DHT22;5966;52.402;5.322;2023-05-20T04:07:04;10.80;99.90
11818;DHT22;5966;52.402;5.322;2023-05-20T04:09:33;10.70;99.90
11818;DHT22;5966;52.402;5.322;2023-05-20T04:12:04;10.70;99.90
11818;DHT22;5966;52.402;5.322;2023-05-20T04:14:32;10.70;99.90
11818;DHT22;5966;52.402;5.322;2023-05-20T04:17:02;10.70;99.90
11818;DHT22;5966;52.402;5.322;2023-05-20T04:19:30;10.80;99.90
11818;DHT22;5966;52.402;5.322;2023-05-20T04:21:59;10.80;99.90
11818;DHT22;5966;52.402;5.322;2023-05-20T04:24:27;10.80;99.90
11818;DHT22;5966;52.402;5.322;2023-05-20T04:26:55;10.70;99.90
11818;DHT22;5966;52.402;5.322;2023-05-20T04:29:25;10.70;99.90
11818;DHT22;5966;52.402;5.322;2023-05-20T04:31:53;10.70;99.90
11818;DHT22;5966;52.402;5.322;2023-05-20T04:34:24;10.70;99.90
11818;DHT22;5966;52.402;5.322;2023-05-20T04:36:52;10.70;99.90
11818;DHT22;5966;52.402;5.322;2023-05-20T04:39:20;10.70;99.90
11818;DHT22;5966;52.402;5.322;2023-05-20T04:41:48;10.70;99.90
11818;DHT22;5966;52.402;5.322;2023-05-20T04:44:20;10.80;99.90
11818;DHT22;5966;52.402;5.322;2023-05-20T04:46:52;10.80;99.90
11818;DHT22;5966;52.402;5.322;2023-05-20T04:49:20;10.80;99.90
11818;DHT22;5966;52.402;5.322;2023-05-20T04:51:48;10.90;99.90
11818;DHT22;5966;52.402;5.322;2023-05-20T04:54:17;10.90;99.90
11818;DHT22;5966;52.402;5.322;2023-05-20T04:56:45;10.90;99.90
11818;DHT22;5966;52.402;5.322;2023-05-20T04:59:14;11.00;99.90
11818;DHT22;5966;52.402;5.322;2023-05-20T05:01:42;11.00;99.90
11818;DHT22;5966;52.402;5.322;2023-05-20T05:04:11;11.10;99.90
11818;DHT22;5966;52.402;5.322;2023-05-20T05:06:39;11.10;99.90
11818;DHT22;5966;52.402;5.322;2023-05-20T05:09:07;11.10;99.90
11818;DHT22;5966;52.402;5.322;2023-05-20T05:11:35;11.10;99.90
11818;DHT22;5966;52.402;5.322;2023-05-20T05:14:03;11.20;99.90
11818;DHT22;5966;52.402;5.322;2023-05-20T05:16:31;11.20;99.90
11818;DHT22;5966;52.402;5.322;2023-05-20T05:18:59;11.30;99.90
11818;DHT22;5966;52.402;5.322;2023-05-20T05:21:29;11.30;99.90
11818;DHT22;5966;52.402;5.322;2023-05-20T05:23:58;11.30;99.90
11818;DHT22;5966;52.402;5.322;2023-05-20T05:26:26;11.40;99.90
11818;DHT22;5966;52.402;5.322;2023-05-20T05:28:54;11.40;99.90
11818;DHT22;5966;52.402;5.322;2023-05-20T05:31:22;11.60;99.90
11818;DHT22;5966;52.402;5.322;2023-05-20T05:33:50;11.80;99.90
11818;DHT22;5966;52.402;5.322;2023-05-20T05:36:18;11.90;99.90
11818;DHT22;5966;52.402;5.322;2023-05-20T05:38:48;12.10;99.90
11818;DHT22;5966;52.402;5.322;2023-05-20T05:41:16;12.30;99.90
11818;DHT22;5966;52.402;5.322;2023-05-20T05:43:44;12.50;99.90
11818;DHT22;5966;52.402;5.322;2023-05-20T05:46:12;12.60;99.90
11818;DHT22;5966;52.402;5.322;2023-05-20T05:48:40;12.80;99.90
11818;DHT22;5966;52.402;5.322;2023-05-20T05:51:08;12.80;99.90
11818;DHT22;5966;52.402;5.322;2023-05-20T05:53:37;12.80;99.90
11818;DHT22;5966;52.402;5.322;2023-05-20T05:56:08;12.80;99.90
11818;DHT22;5966;52.402;5.322;2023-05-20T05:58:37;13.00;99.90
11818;DHT22;5966;52.402;5.322;2023-05-20T06:01:06;13.10;99.90
11818;DHT22;5966;52.402;5.322;2023-05-20T06:03:35;13.20;99.90
11818;DHT22;5966;52.402;5.322;2023-05-20T06:06:04;13.30;99.90
11818;DHT22;5966;52.402;5.322;2023-05-20T06:08:33;13.40;99.90
11818;DHT22;5966;52.402;5.322;2023-05-20T06:11:01;13.40;99.90
11818;DHT22;5966;52.402;5.322;2023-05-20T06:13:31;13.40;99.90
11818;DHT22;5966;52.402;5.322;2023-05-20T06:15:59;13.60;99.90
11818;DHT22;5966;52.402;5.322;2023-05-20T06:18:27;13.70;99.90
11818;DHT22;5966;52.402;5.322;2023-05-20T06:20:55;13.80;99.90
11818;DHT22;5966;52.402;5.322;2023-05-20T06:23:23;13.90;99.90
11818;DHT22;5966;52.402;5.322;2023-05-20T06:25:52;13.90;99.90
11818;DHT22;5966;52.402;5.322;2023-05-20T06:28:25;14.00;99.90
11818;DHT22;5966;52.402;5.322;2023-05-20T06:30:56;14.10;99.90
11818;DHT22;5966;52.402;5.322;2023-05-20T06:33:24;14.20;99.90
11818;DHT22;5966;52.402;5.322;2023-05-20T06:35:54;14.20;99.90
11818;DHT22;5966;52.402;5.322;2023-05-20T06:38:25;14.20;99.90
11818;DHT22;5966;52.402;5.322;2023-05-20T06:40:53;14.30;99.90
11818;DHT22;5966;52.402;5.322;2023-05-20T06:43:22;14.40;99.90
11818;DHT22;5966;52.402;5.322;2023-05-20T06:45:50;14.50;99.90
11818;DHT22;5966;52.402;5.322;2023-05-20T06:48:19;14.60;99.90
11818;DHT22;5966;52.402;5.322;2023-05-20T06:50:48;14.70;99.90
11818;DHT22;5966;52.402;5.322;2023-05-20T06:53:18;14.80;99.90
11818;DHT22;5966;52.402;5.322;2023-05-20T06:55:48;14.90;99.90
11818;DHT22;5966;52.402;5.322;2023-05-20T06:58:16;15.00;99.90
11818;DHT22;5966;52.402;5.322;2023-05-20T07:00:44;15.00;99.90
11818;DHT22;5966;52.402;5.322;2023-05-20T07:03:12;15.00;99.90
11818;DHT22;5966;52.402;5.322;2023-05-20T07:05:41;15.10;99.90
11818;DHT22;5966;52.402;5.322;2023-05-20T07:08:12;15.20;99.90
11818;DHT22;5966;52.402;5.322;2023-05-20T07:10:40;15.30;99.90
11818;DHT22;5966;52.402;5.322;2023-05-20T07:13:08;15.50;99.90
11818;DHT22;5966;52.402;5.322;2023-05-20T07:15:36;15.50;99.90
11818;DHT22;5966;52.402;5.322;2023-05-20T07:18:04;15.60;99.90
11818;DHT22;5966;52.402;5.322;2023-05-20T07:20:32;15.70;99.90
11818;DHT22;5966;52.402;5.322;2023-05-20T07:23:01;15.80;99.90
11818;DHT22;5966;52.402;5.322;2023-05-20T07:25:29;15.90;99.90
11818;DHT22;5966;52.402;5.322;2023-05-20T07:27:58;15.90;99.90
11818;DHT22;5966;52.402;5.322;2023-05-20T07:30:26;15.90;99.90
11818;DHT22;5966;52.402;5.322;2023-05-20T07:32:54;15.90;99.90
11818;DHT22;5966;52.402;5.322;2023-05-20T07:35:22;15.90;99.90
11818;DHT22;5966;52.402;5.322;2023-05-20T07:37:51;15.90;99.90
11818;DHT22;5966;52.402;5.322;2023-05-20T07:40:21;15.90;99.90
11818;DHT22;5966;52.402;5.322;2023-05-20T07:42:49;16.00;99.90
11818;DHT22;5966;52.402;5.322;2023-05-20T07:45:17;16.00;99.90
11818;DHT22;5966;52.402;5.322;2023-05-20T07:47:45;16.20;99.90
11818;DHT22;5966;52.402;5.322;2023-05-20T07:50:13;16.30;99.90
11818;DHT22;5966;52.402;5.322;2023-05-20T07:52:41;16.30;99.90
11818;DHT22;5966;52.402;5.322;2023-05-20T07:55:23;16.40;99.90
11818;DHT22;5966;52.402;5.322;2023-05-20T07:57:51;16.40;99.90
11818;DHT22;5966;52.402;5.322;2023-05-20T08:00:20;16.30;99.90
11818;DHT22;5966;52.402;5.322;2023-05-20T08:02:48;16.50;99.90
11818;DHT22;5966;52.402;5.322;2023-05-20T08:05:16;16.60;99.90
11818;DHT22;5966;52.402;5.322;2023-05-20T08:07:45;16.70;99.90
11818;DHT22;5966;52.402;5.322;2023-05-20T08:10:13;16.70;99.90
11818;DHT22;5966;52.402;5.322;2023-05-20T08:12:42;16.80;99.90
11818;DHT22;5966;52.402;5.322;2023-05-20T08:15:11;16.90;99.90
11818;DHT22;5966;52.402;5.322;2023-05-20T08:17:41;17.00;99.90
11818;DHT22;5966;52.402;5.322;2023-05-20T08:20:10;17.00;99.90
11818;DHT22;5966;52.402;5.322;2023-05-20T08:22:38;17.10;99.90
11818;DHT22;5966;52.402;5.322;2023-05-20T08:25:08;17.10;99.90
11818;DHT22;5966;52.402;5.322;2023-05-20T08:27:36;17.20;99.90
11818;DHT22;5966;52.402;5.322;2023-05-20T08:30:08;17.40;99.90
11818;DHT22;5966;52.402;5.322;2023-05-20T08:32:36;17.40;99.90
11818;DHT22;5966;52.402;5.322;2023-05-20T08:35:07;17.50;99.90
11818;DHT22;5966;52.402;5.322;2023-05-20T08:37:38;17.60;99.90
11818;DHT22;5966;52.402;5.322;2023-05-20T08:40:08;17.70;99.90
11818;DHT22;5966;52.402;5.322;2023-05-20T08:42:40;17.60;99.90
11818;DHT22;5966;52.402;5.322;2023-05-20T08:45:11;17.60;99.90
11818;DHT22;5966;52.402;5.322;2023-05-20T08:47:41;17.60;99.90
11818;DHT22;5966;52.402;5.322;2023-05-20T08:50:10;17.50;99.90
11818;DHT22;5966;52.402;5.322;2023-05-20T08:52:43;17.60;99.90
11818;DHT22;5966;52.402;5.322;2023-05-20T08:55:14;17.80;99.90
11818;DHT22;5966;52.402;5.322;2023-05-20T08:57:44;17.80;99.90
11818;DHT22;5966;52.402;5.322;2023-05-20T09:00:15;17.80;99.90
11818;DHT22;5966;52.402;5.322;2023-05-20T09:02:44;17.90;99.90
11818;DHT22;5966;52.402;5.322;2023-05-20T09:05:13;18.00;99.90
11818;DHT22;5966;52.402;5.322;2023-05-20T09:07:44;18.10;99.90
11818;DHT22;5966;52.402;5.322;2023-05-20T09:10:13;18.20;99.90
11818;DHT22;5966;52.402;5.322;2023-05-20T09:12:41;18.10;99.90
11818;DHT22;5966;52.402;5.322;2023-05-20T09:15:10;18.00;99.90
11818;DHT22;5966;52.402;5.322;2023-05-20T09:17:42;18.10;99.90
11818;DHT22;5966;52.402;5.322;2023-05-20T09:20:11;18.10;99.90
11818;DHT22;5966;52.402;5.322;2023-05-20T09:22:42;18.00;99.90
11818;DHT22;5966;52.402;5.322;2023-05-20T09:25:11;18.10;99.90
11818;DHT22;5966;52.402;5.322;2023-05-20T09:27:39;18.20;99.90
11818;DHT22;5966;52.402;5.322;2023-05-20T09:30:08;18.30;99.90
11818;DHT22;5966;52.402;5.322;2023-05-20T09:32:41;18.40;99.90
11818;DHT22;5966;52.402;5.322;2023-05-20T09:35:12;18.30;99.90
11818;DHT22;5966;52.402;5.322;2023-05-20T09:37:46;18.50;99.90
11818;DHT22;5966;52.402;5.322;2023-05-20T09:40:15;18.50;99.90
11818;DHT22;5966;52.402;5.322;2023-05-20T09:42:50;18.40;99.90
11818;DHT22;5966;52.402;5.322;2023-05-20T09:45:19;18.30;99.90
11818;DHT22;5966;52.402;5.322;2023-05-20T09:47:51;18.20;99.90
11818;DHT22;5966;52.402;5.322;2023-05-20T09:50:27;18.20;99.90
11818;DHT22;5966;52.402;5.322;2023-05-20T09:52:55;18.20;99.90
11818;DHT22;5966;52.402;5.322;2023-05-20T09:55:24;18.10;99.90
11818;DHT22;5966;52.402;5.322;2023-05-20T09:57:54;17.90;99.90
11818;DHT22;5966;52.402;5.322;2023-05-20T10:00:25;17.80;99.90
11818;DHT22;5966;52.402;5.322;2023-05-20T10:02:55;17.80;99.90
11818;DHT22;5966;52.402;5.322;2023-05-20T10:05:27;17.80;99.90
11818;DHT22;5966;52.402;5.322;2023-05-20T10:08:21;17.80;99.90
11818;DHT22;5966;52.402;5.322;2023-05-20T10:10:57;17.80;99.90
11818;DHT22;5966;52.402;5.322;2023-05-20T10:13:58;17.70;99.90
11818;DHT22;5966;52.402;5.322;2023-05-20T10:16:36;17.90;99.90
11818;DHT22;5966;52.402;5.322;2023-05-20T10:19:13;18.00;99.90
11818;DHT22;5966;52.402;5.322;2023-05-20T10:21:43;18.10;99.90
11818;DHT22;5966;52.402;5.322;2023-05-20T10:24:11;18.20;99.90
11818;DHT22;5966;52.402;5.322;2023-05-20T10:26:43;18.20;99.90
11818;DHT22;5966;52.402;5.322;2023-05-20T10:29:22;18.20;99.90
11818;DHT22;5966;52.402;5.322;2023-05-20T10:31:52;18.20;99.90
11818;DHT22;5966;52.402;5.322;2023-05-20T10:34:22;18.10;99.90
11818;DHT22;5966;52.402;5.322;2023-05-20T10:36:57;18.00;99.90
11818;DHT22;5966;52.402;5.322;2023-05-20T10:39:26;17.90;99.90
11818;DHT22;5966;52.402;5.322;2023-05-20T10:42:07;18.10;99.90
11818;DHT22;5966;52.402;5.322;2023-05-20T10:44:41;18.20;99.90
11818;DHT22;5966;52.402;5.322;2023-05-20T10:47:09;18.30;99.90
11818;DHT22;5966;52.402;5.322;2023-05-20T10:49:45;18.40;99.90
11818;DHT22;5966;52.402;5.322;2023-05-20T10:52:13;18.50;99.90
11818;DHT22;5966;52.402;5.322;2023-05-20T10:54:43;18.40;99.90
11818;DHT22;5966;52.402;5.322;2023-05-20T10:57:13;18.40;99.90
11818;DHT22;5966;52.402;5.322;2023-05-20T10:59:41;18.50;99.90
11818;DHT22;5966;52.402;5.322;2023-05-20T11:02:10;18.70;99.90
11818;DHT22;5966;52.402;5.322;2023-05-20T11:04:41;18.70;99.90
11818;DHT22;5966;52.402;5.322;2023-05-20T11:07:12;18.60;99.90
11818;DHT22;5966;52.402;5.322;2023-05-20T11:09:48;18.50;99.90
11818;DHT22;5966;52.402;5.322;2023-05-20T11:12:16;18.50;99.90
11818;DHT22;5966;52.402;5.322;2023-05-20T11:14:46;18.50;99.90
11818;DHT22;5966;52.402;5.322;2023-05-20T11:17:19;18.60;99.90
11818;DHT22;5966;52.402;5.322;2023-05-20T11:19:49;18.60;98.90
11818;DHT22;5966;52.402;5.322;2023-05-20T11:22:18;18.70;99.90
11818;DHT22;5966;52.402;5.322;2023-05-20T11:24:47;18.90;99.90
11818;DHT22;5966;52.402;5.322;2023-05-20T11:27:15;19.10;99.90
11818;DHT22;5966;52.402;5.322;2023-05-20T11:29:43;19.10;99.80
11818;DHT22;5966;52.402;5.322;2023-05-20T11:32:11;19.10;99.00
11818;DHT22;5966;52.402;5.322;2023-05-20T11:34:39;19.20;99.90
11818;DHT22;5966;52.402;5.322;2023-05-20T11:37:09;19.30;99.90
11818;DHT22;5966;52.402;5.322;2023-05-20T11:39:39;19.40;99.90
11818;DHT22;5966;52.402;5.322;2023-05-20T11:42:07;19.40;99.90
11818;DHT22;5966;52.402;5.322;2023-05-20T11:44:35;19.50;98.90
11818;DHT22;5966;52.402;5.322;2023-05-20T11:47:04;19.40;97.30
11818;DHT22;5966;52.402;5.322;2023-05-20T11:49:38;19.10;99.90
11818;DHT22;5966;52.402;5.322;2023-05-20T11:52:08;19.00;99.00
11818;DHT22;5966;52.402;5.322;2023-05-20T11:54:36;18.90;98.70
11818;DHT22;5966;52.402;5.322;2023-05-20T11:57:06;18.90;99.90
11818;DHT22;5966;52.402;5.322;2023-05-20T11:59:34;18.80;99.90
11818;DHT22;5966;52.402;5.322;2023-05-20T12:02:02;18.80;99.90
11818;DHT22;5966;52.402;5.322;2023-05-20T12:04:30;18.80;99.90
11818;DHT22;5966;52.402;5.322;2023-05-20T12:06:58;19.10;99.90
11818;DHT22;5966;52.402;5.322;2023-05-20T12:09:26;19.30;99.40
11818;DHT22;5966;52.402;5.322;2023-05-20T12:11:56;19.40;99.50
11818;DHT22;5966;52.402;5.322;2023-05-20T12:14:29;19.50;98.50
11818;DHT22;5966;52.402;5.322;2023-05-20T12:17:01;19.50;99.20
11818;DHT22;5966;52.402;5.322;2023-05-20T12:19:31;19.40;99.20
11818;DHT22;5966;52.402;5.322;2023-05-20T12:22:04;19.20;99.50
11818;DHT22;5966;52.402;5.322;2023-05-20T12:24:34;19.10;99.80
11818;DHT22;5966;52.402;5.322;2023-05-20T12:27:02;19.20;98.80
11818;DHT22;5966;52.402;5.322;2023-05-20T12:29:39;19.30;99.80
11818;DHT22;5966;52.402;5.322;2023-05-20T12:32:07;19.20;99.20
11818;DHT22;5966;52.402;5.322;2023-05-20T12:34:36;19.10;99.10
11818;DHT22;5966;52.402;5.322;2023-05-20T12:37:04;19.00;99.90
11818;DHT22;5966;52.402;5.322;2023-05-20T12:39:33;18.90;99.60
11818;DHT22;5966;52.402;5.322;2023-05-20T12:42:01;19.00;99.90
11818;DHT22;5966;52.402;5.322;2023-05-20T12:44:29;19.30;99.90
11818;DHT22;5966;52.402;5.322;2023-05-20T12:47:00;19.40;99.90
11818;DHT22;5966;52.402;5.322;2023-05-20T12:49:29;19.40;99.80
11818;DHT22;5966;52.402;5.322;2023-05-20T12:51:58;19.50;99.90
11818;DHT22;5966;52.402;5.322;2023-05-20T12:54:31;19.40;99.90
11818;DHT22;5966;52.402;5.322;2023-05-20T12:57:01;19.40;99.90
11818;DHT22;5966;52.402;5.322;2023-05-20T12:59:31;19.20;99.90
11818;DHT22;5966;52.402;5.322;2023-05-20T13:02:03;19.00;99.90
11818;DHT22;5966;52.402;5.322;2023-05-20T13:04:32;19.00;99.90
11818;DHT22;5966;52.402;5.322;2023-05-20T13:07:01;19.00;99.90
11818;DHT22;5966;52.402;5.322;2023-05-20T13:09:29;19.20;99.90
11818;DHT22;5966;52.402;5.322;2023-05-20T13:11:59;19.30;99.90
11818;DHT22;5966;52.402;5.322;2023-05-20T13:14:28;19.40;99.90
11818;DHT22;5966;52.402;5.322;2023-05-20T13:16:57;19.60;99.90
11818;DHT22;5966;52.402;5.322;2023-05-20T13:19:26;19.70;99.90
11818;DHT22;5966;52.402;5.322;2023-05-20T13:21:55;19.70;99.80
11818;DHT22;5966;52.402;5.322;2023-05-20T13:24:24;19.60;99.20
11818;DHT22;5966;52.402;5.322;2023-05-20T13:26:56;19.60;99.90
11818;DHT22;5966;52.402;5.322;2023-05-20T13:29:26;19.60;99.90
11818;DHT22;5966;52.402;5.322;2023-05-20T13:31:55;19.70;99.90
11818;DHT22;5966;52.402;5.322;2023-05-20T13:34:28;19.70;99.00
11818;DHT22;5966;52.402;5.322;2023-05-20T13:36:57;19.80;99.90
11818;DHT22;5966;52.402;5.322;2023-05-20T13:39:25;19.90;99.90
11818;DHT22;5966;52.402;5.322;2023-05-20T13:41:54;19.90;99.90
11818;DHT22;5966;52.402;5.322;2023-05-20T13:44:24;19.80;99.90
11818;DHT22;5966;52.402;5.322;2023-05-20T13:46:57;19.60;99.90
11818;DHT22;5966;52.402;5.322;2023-05-20T13:49:28;19.40;99.90
11818;DHT22;5966;52.402;5.322;2023-05-20T13:51:56;19.30;99.90
11818;DHT22;5966;52.402;5.322;2023-05-20T13:54:24;19.40;99.90
11818;DHT22;5966;52.402;5.322;2023-05-20T13:56:52;19.70;99.90
11818;DHT22;5966;52.402;5.322;2023-05-20T13:59:22;19.80;99.90
11818;DHT22;5966;52.402;5.322;2023-05-20T14:01:51;19.70;99.90
11818;DHT22;5966;52.402;5.322;2023-05-20T14:04:25;19.70;99.90
11818;DHT22;5966;52.402;5.322;2023-05-20T14:06:59;19.70;99.90
11818;DHT22;5966;52.402;5.322;2023-05-20T14:09:27;19.70;99.90
11818;DHT22;5966;52.402;5.322;2023-05-20T14:11:55;19.70;99.90
11818;DHT22;5966;52.402;5.322;2023-05-20T14:14:23;19.80;99.90
11818;DHT22;5966;52.402;5.322;2023-05-20T14:16:52;19.80;99.80
11818;DHT22;5966;52.402;5.322;2023-05-20T14:19:21;19.70;99.90
11818;DHT22;5966;52.402;5.322;2023-05-20T14:21:49;19.70;99.90
11818;DHT22;5966;52.402;5.322;2023-05-20T14:24:18;19.70;99.90
11818;DHT22;5966;52.402;5.322;2023-05-20T14:26:49;19.60;99.80
11818;DHT22;5966;52.402;5.322;2023-05-20T14:29:17;19.60;99.90
11818;DHT22;5966;52.402;5.322;2023-05-20T14:31:45;19.70;99.90
11818;DHT22;5966;52.402;5.322;2023-05-20T14:34:13;19.80;99.60
11818;DHT22;5966;52.402;5.322;2023-05-20T14:36:42;19.80;98.90
11818;DHT22;5966;52.402;5.322;2023-05-20T14:39:10;19.70;98.00
11818;DHT22;5966;52.402;5.322;2023-05-20T14:41:39;19.70;98.70
11818;DHT22;5966;52.402;5.322;2023-05-20T14:44:07;19.60;99.90
11818;DHT22;5966;52.402;5.322;2023-05-20T14:46:35;19.60;98.90
11818;DHT22;5966;52.402;5.322;2023-05-20T14:49:04;19.60;99.90
11818;DHT22;5966;52.402;5.322;2023-05-20T14:51:34;19.60;99.90
11818;DHT22;5966;52.402;5.322;2023-05-20T14:54:03;19.60;99.90
11818;DHT22;5966;52.402;5.322;2023-05-20T14:56:32;19.60;99.90
11818;DHT22;5966;52.402;5.322;2023-05-20T14:59:01;19.50;99.90
11818;DHT22;5966;52.402;5.322;2023-05-20T15:01:30;19.30;99.90
11818;DHT22;5966;52.402;5.322;2023-05-20T15:03:59;19.40;99.90
11818;DHT22;5966;52.402;5.322;2023-05-20T15:06:27;19.30;99.90
11818;DHT22;5966;52.402;5.322;2023-05-20T15:08:59;19.40;99.90
11818;DHT22;5966;52.402;5.322;2023-05-20T15:11:28;19.40;99.90
11818;DHT22;5966;52.402;5.322;2023-05-20T15:13:56;19.50;99.90
11818;DHT22;5966;52.402;5.322;2023-05-20T15:16:26;19.50;99.90
11818;DHT22;5966;52.402;5.322;2023-05-20T15:18:57;19.50;99.90
11818;DHT22;5966;52.402;5.322;2023-05-20T15:21:25;19.50;99.90
11818;DHT22;5966;52.402;5.322;2023-05-20T15:23:53;19.50;99.90
11818;DHT22;5966;52.402;5.322;2023-05-20T15:26:21;19.50;99.90
11818;DHT22;5966;52.402;5.322;2023-05-20T15:28:50;19.50;99.90
11818;DHT22;5966;52.402;5.322;2023-05-20T15:31:21;19.40;99.90
11818;DHT22;5966;52.402;5.322;2023-05-20T15:33:51;19.40;99.90
11818;DHT22;5966;52.402;5.322;2023-05-20T15:36:30;19.40;99.90
11818;DHT22;5966;52.402;5.322;2023-05-20T15:38:58;19.40;99.90
11818;DHT22;5966;52.402;5.322;2023-05-20T15:41:26;19.30;99.90
11818;DHT22;5966;52.402;5.322;2023-05-20T15:43:54;19.30;99.90
11818;DHT22;5966;52.402;5.322;2023-05-20T15:46:22;19.30;99.90
11818;DHT22;5966;52.402;5.322;2023-05-20T15:48:52;19.30;99.90
11818;DHT22;5966;52.402;5.322;2023-05-20T15:51:22;19.30;99.90
11818;DHT22;5966;52.402;5.322;2023-05-20T15:53:50;19.20;99.90
11818;DHT22;5966;52.402;5.322;2023-05-20T15:56:18;19.20;99.90
11818;DHT22;5966;52.402;5.322;2023-05-20T15:58:47;19.20;99.90